Etusivu
METAR-TAF:

METAR-TAF

Lentoasemat :

Sonora Municipal Airport

Sonora, Texas, Yhdysvallat

Leveyspiiri: 30-35-08N, Pituuspiiri: 100-38-54W, korkeus merenpinnasta: 652 m

Tämänhetkinen sää

Tämä raportti tehtiin 25 minuuttia sitten, kello 17.15 UTC
Tuuli 12 kn etelästä/lounaasta
Lämpötila 34°C
Kosteus 41%
Ilmanpaine 1013 hPa
Näkyvyys: 16.1 km
selkeää

METAR: KSOA 201715Z AUTO 21012KT 10SM CLR 34/19 A2992 RMK AO2

Aika: 12:40 (17:40 UTC)

Sääennuste

Tämä raportti tehtiin 20 minuuttia sitten, kello 17.20 UTC
Ennuste voimassa 20. päivästä klo 18 UTC - 21. päivään klo 18 UTC
Tuuli 10 kn etelästä puuskistuen 16 kn:hen
Näkyvyys: 10 km
Hajonneita pilviä 25000 ft:n korkeudessa

TAF: KSOA 201720Z 2018/2118 19010G16KT P6SM BKN250

Säähavainnot ja -ennusteet yli 4000 lentoasemalta (METAR- ja TAF-raportit).

Käytössä olevat sääasemat on merkitty karttaan keltaisilla ja punaisilla pisteillä.

Aseta hiiri pisteen päälle nähdäksesi sääaseman nimen.

Klikkaa sitten nähdäksesi säähavainnot ja -ennusteet.

Kartan vaihtaminen: klikkaa mustalla rastilla varustettuja vihreitä pisteitä, niin voit zoomata sisään; viivalla varustettua vihreää pistettä, niin voit zoomata ulos tai vihreitä nuolia, niin pääset viereisille kartoille.


METAR-TAF: